createdAt,value
2019-01-08T00:00:07.701Z,1.30
2019-01-08T00:02:39.603Z,1.33
2019-01-08T00:05:09.881Z,1.35
2019-01-08T00:07:40.162Z,1.34
2019-01-08T00:10:10.440Z,1.34
2019-01-08T00:12:40.703Z,1.56
2019-01-08T00:15:10.957Z,1.54
2019-01-08T00:17:41.209Z,1.47
2019-01-08T00:20:11.515Z,1.59
2019-01-08T00:22:41.803Z,1.59
2019-01-08T00:25:12.091Z,1.61
2019-01-08T00:27:42.384Z,1.53
2019-01-08T00:30:12.661Z,1.47
2019-01-08T00:32:42.920Z,1.49
2019-01-08T00:35:13.209Z,1.49
2019-01-08T00:37:43.455Z,1.54
2019-01-08T00:40:13.733Z,1.63
2019-01-08T00:42:43.983Z,1.52
2019-01-08T00:45:14.253Z,1.45
2019-01-08T00:47:44.519Z,1.39
2019-01-08T00:50:14.851Z,1.48
2019-01-08T00:52:45.110Z,1.48
2019-01-08T00:55:15.402Z,1.55
2019-01-08T00:57:45.673Z,1.60
2019-01-08T01:00:15.946Z,1.49
2019-01-08T01:02:46.242Z,1.31
2019-01-08T01:05:16.515Z,1.30
2019-01-08T01:07:46.816Z,1.28
2019-01-08T01:10:17.092Z,1.35
2019-01-08T01:12:47.512Z,1.11
2019-01-08T01:15:17.805Z,1.05
2019-01-08T01:17:48.060Z,1.11
2019-01-08T01:20:18.331Z,1.13
2019-01-08T01:22:48.601Z,1.28
2019-01-08T01:25:18.900Z,1.14
2019-01-08T01:27:49.198Z,1.09
2019-01-08T01:30:19.522Z,1.12
2019-01-08T01:32:49.860Z,1.15
2019-01-08T01:35:20.140Z,1.12
2019-01-08T01:37:50.391Z,1.17
2019-01-08T01:40:20.731Z,1.21
2019-01-08T01:42:51.057Z,1.09
2019-01-08T01:45:21.419Z,1.06
2019-01-08T01:47:51.700Z,1.11
2019-01-08T01:50:22.050Z,0.93
2019-01-08T01:52:52.292Z,0.69
2019-01-08T01:55:22.618Z,0.73
2019-01-08T01:57:52.922Z,0.67
2019-01-08T02:00:23.214Z,0.66
2019-01-08T02:02:53.495Z,0.77
2019-01-08T02:05:23.752Z,0.67
2019-01-08T02:07:54.000Z,0.59
2019-01-08T02:10:25.352Z,0.73
2019-01-08T02:12:55.616Z,0.79
2019-01-08T02:15:25.885Z,0.74
2019-01-08T02:17:56.196Z,0.69
2019-01-08T02:20:26.489Z,0.59
2019-01-08T02:22:56.836Z,0.60
2019-01-08T02:25:27.101Z,0.56
2019-01-08T02:27:57.505Z,0.64
2019-01-08T02:30:27.894Z,0.62
2019-01-08T02:32:58.139Z,0.76
2019-01-08T02:35:28.413Z,0.74
2019-01-08T02:37:58.792Z,0.66
2019-01-08T02:40:29.057Z,0.72
2019-01-08T02:42:59.348Z,0.62
2019-01-08T02:45:30.281Z,0.65
2019-01-08T02:48:00.565Z,0.78
2019-01-08T02:50:30.837Z,0.66
2019-01-08T02:53:01.133Z,0.59
2019-01-08T02:55:31.422Z,0.63
2019-01-08T02:58:01.683Z,0.66
2019-01-08T03:00:31.944Z,0.78
2019-01-08T03:03:02.261Z,0.78
2019-01-08T03:05:32.552Z,0.78
2019-01-08T03:08:02.826Z,0.76
2019-01-08T03:10:33.149Z,0.75
2019-01-08T03:13:03.469Z,0.89
2019-01-08T03:15:33.791Z,0.82
2019-01-08T03:18:04.056Z,0.79
2019-01-08T03:20:34.340Z,0.80
2019-01-08T03:23:04.673Z,0.87
2019-01-08T03:25:35.044Z,0.89
2019-01-08T03:28:05.370Z,0.87
2019-01-08T03:30:35.750Z,0.89
2019-01-08T03:33:06.004Z,1.04
2019-01-08T03:35:37.343Z,0.98
2019-01-08T03:38:07.629Z,1.00
2019-01-08T03:40:37.917Z,1.01
2019-01-08T03:43:08.201Z,1.09
2019-01-08T03:45:38.549Z,1.13
2019-01-08T03:48:08.821Z,1.14
2019-01-08T03:50:39.197Z,1.13
2019-01-08T03:53:09.473Z,1.11
2019-01-08T03:55:39.798Z,1.13
2019-01-08T03:58:10.058Z,1.19
2019-01-08T04:00:40.334Z,1.22
2019-01-08T04:03:10.626Z,1.24
2019-01-08T04:05:40.968Z,1.25
2019-01-08T04:08:11.238Z,1.27
2019-01-08T04:10:41.496Z,1.25
2019-01-08T04:13:11.840Z,1.30
2019-01-08T04:15:42.104Z,1.23
2019-01-08T04:18:12.360Z,1.30
2019-01-08T04:20:42.610Z,1.29
2019-01-08T04:23:13.928Z,1.22
2019-01-08T04:25:44.175Z,1.36
2019-01-08T04:28:14.465Z,1.24
2019-01-08T04:30:44.734Z,1.27
2019-01-08T04:33:15.005Z,1.25
2019-01-08T04:35:45.261Z,1.06
2019-01-08T04:38:15.585Z,1.02
2019-01-08T04:40:45.940Z,0.94
2019-01-08T04:43:16.207Z,0.83
2019-01-08T04:45:46.584Z,0.83
2019-01-08T04:48:16.864Z,0.83
2019-01-08T04:50:47.115Z,0.88
2019-01-08T04:53:17.382Z,0.90
2019-01-08T04:55:47.754Z,0.81
2019-01-08T04:58:18.970Z,0.83
2019-01-08T05:00:49.219Z,0.85
2019-01-08T05:03:19.514Z,0.82
2019-01-08T05:05:49.789Z,0.87
2019-01-08T05:08:20.061Z,0.82
2019-01-08T05:10:51.401Z,0.89
2019-01-08T05:13:21.733Z,0.92
2019-01-08T05:15:52.005Z,0.89
2019-01-08T05:18:22.284Z,0.92
2019-01-08T05:20:52.554Z,0.93
2019-01-08T05:23:22.847Z,1.01
2019-01-08T05:25:53.102Z,1.10
2019-01-08T05:28:23.410Z,1.10
2019-01-08T05:30:53.760Z,1.03
2019-01-08T05:33:23.993Z,1.03
2019-01-08T05:35:54.260Z,0.99
2019-01-08T05:38:24.715Z,1.00
2019-01-08T05:40:54.984Z,0.94
2019-01-08T05:43:25.243Z,0.98
2019-01-08T05:45:55.533Z,0.97
2019-01-08T05:48:25.915Z,0.96
2019-01-08T05:50:56.313Z,1.00
2019-01-08T05:53:26.589Z,0.94
2019-01-08T05:55:56.966Z,1.00
2019-01-08T05:58:27.296Z,1.10
2019-01-08T06:00:57.623Z,1.14
2019-01-08T06:03:27.917Z,1.11
2019-01-08T06:05:58.274Z,1.10
2019-01-08T06:08:28.650Z,1.15
2019-01-08T06:10:59.010Z,1.11
2019-01-08T06:13:29.286Z,1.17
2019-01-08T06:15:59.539Z,1.32
2019-01-08T06:18:29.803Z,1.34
2019-01-08T06:21:00.075Z,1.36
2019-01-08T06:23:30.377Z,1.44
2019-01-08T06:26:00.647Z,1.40
2019-01-08T06:28:31.008Z,1.46
2019-01-08T06:31:02.253Z,1.48
2019-01-08T06:33:32.520Z,1.45
2019-01-08T06:36:02.817Z,1.45
2019-01-08T06:38:33.419Z,1.48
2019-01-08T06:41:03.730Z,1.50
2019-01-08T06:43:33.993Z,1.58
2019-01-08T06:46:04.291Z,1.59
2019-01-08T06:48:34.797Z,1.62
2019-01-08T06:51:05.216Z,1.58
2019-01-08T06:53:35.535Z,1.56
2019-01-08T06:56:05.783Z,1.58
2019-01-08T06:58:36.077Z,1.59
2019-01-08T07:01:06.462Z,1.58
2019-01-08T07:03:36.865Z,1.59
2019-01-08T07:06:07.167Z,1.53
2019-01-08T07:08:37.489Z,1.60
2019-01-08T07:11:07.827Z,1.55
2019-01-08T07:13:38.213Z,1.48
2019-01-08T07:16:08.490Z,1.56
2019-01-08T07:18:38.757Z,1.54
2019-01-08T07:21:09.145Z,1.51
2019-01-08T07:23:39.418Z,1.54
2019-01-08T07:26:09.726Z,1.54
2019-01-08T07:28:40.083Z,1.61
2019-01-08T07:31:10.431Z,1.62
2019-01-08T07:33:40.735Z,1.63
2019-01-08T07:36:11.038Z,1.53
2019-01-08T07:38:41.468Z,1.58
2019-01-08T07:41:11.738Z,1.56
2019-01-08T07:43:42.020Z,1.56
2019-01-08T07:46:12.355Z,1.64
2019-01-08T07:48:42.713Z,1.60
2019-01-08T07:51:12.964Z,1.68
2019-01-08T07:53:43.301Z,1.69
2019-01-08T07:56:13.572Z,1.80
2019-01-08T07:58:43.831Z,1.72
2019-01-08T08:01:14.112Z,1.66
2019-01-08T08:03:44.383Z,1.71
2019-01-08T08:06:14.732Z,1.70
2019-01-08T08:08:45.098Z,1.79
2019-01-08T08:11:15.393Z,1.73
2019-01-08T08:13:45.634Z,1.76
2019-01-08T08:16:15.924Z,1.77
2019-01-08T08:18:46.180Z,1.71
2019-01-08T08:21:16.498Z,1.64
2019-01-08T08:23:46.777Z,1.68
2019-01-08T08:26:17.051Z,1.81
2019-01-08T08:28:47.323Z,1.87
2019-01-08T08:31:17.735Z,1.76
2019-01-08T08:33:48.038Z,1.79
2019-01-08T08:36:18.311Z,1.78
2019-01-08T08:38:49.629Z,1.91
2019-01-08T08:41:20.019Z,1.95
2019-01-08T08:43:50.275Z,2.05
2019-01-08T08:46:20.535Z,2.08
2019-01-08T08:48:51.935Z,2.13
2019-01-08T08:51:22.216Z,2.12
2019-01-08T08:53:53.487Z,2.24
2019-01-08T08:56:23.770Z,2.17
2019-01-08T08:58:54.050Z,2.14
2019-01-08T09:01:24.328Z,2.13
2019-01-08T09:03:54.753Z,2.17
2019-01-08T09:06:25.026Z,2.50
2019-01-08T09:08:56.325Z,2.48
2019-01-08T09:11:26.582Z,2.56
2019-01-08T09:13:56.815Z,2.82
2019-01-08T09:16:27.637Z,2.63
2019-01-08T09:18:57.894Z,2.71
2019-01-08T09:21:28.150Z,2.53
2019-01-08T09:23:58.392Z,2.39
2019-01-08T09:26:28.654Z,2.34
2019-01-08T09:28:58.906Z,2.30
2019-01-08T09:31:29.157Z,2.09
2019-01-08T09:33:59.439Z,1.84
2019-01-08T09:36:30.877Z,1.83
2019-01-08T09:39:01.112Z,1.72
2019-01-08T09:41:31.379Z,1.61
2019-01-08T09:44:01.813Z,1.73
2019-01-08T09:46:32.098Z,1.86
2019-01-08T09:49:02.455Z,1.89
2019-01-08T09:51:32.858Z,1.95
2019-01-08T09:54:03.174Z,1.96
2019-01-08T09:56:33.460Z,1.96
2019-01-08T09:59:03.708Z,1.97
2019-01-08T10:01:33.966Z,1.99
2019-01-08T10:04:04.212Z,2.15
2019-01-08T10:06:34.512Z,2.12
2019-01-08T10:09:05.690Z,2.30
2019-01-08T10:11:35.940Z,2.26
2019-01-08T10:14:06.163Z,2.28
2019-01-08T10:16:36.421Z,2.33
2019-01-08T10:19:06.717Z,2.30
2019-01-08T10:21:36.972Z,2.41
2019-01-08T10:24:07.242Z,2.44
2019-01-08T10:26:37.513Z,2.41
2019-01-08T10:29:07.799Z,2.52
2019-01-08T10:31:38.127Z,2.63
2019-01-08T10:34:08.416Z,2.85
2019-01-08T10:36:38.782Z,3.14
2019-01-08T10:39:09.206Z,2.98
2019-01-08T10:41:39.547Z,2.91
2019-01-08T10:44:09.796Z,3.06
2019-01-08T10:46:40.083Z,2.99
2019-01-08T10:49:10.423Z,3.08
2019-01-08T10:51:40.865Z,2.99
2019-01-08T10:54:11.181Z,2.85
2019-01-08T10:56:41.525Z,2.80
2019-01-08T10:59:11.812Z,2.95
2019-01-08T11:01:42.063Z,2.97
2019-01-08T11:04:12.349Z,3.10
2019-01-08T11:06:42.695Z,2.83
2019-01-08T11:09:12.957Z,2.72
2019-01-08T11:11:43.232Z,2.69
2019-01-08T11:14:13.477Z,2.53
2019-01-08T11:16:43.832Z,2.55
2019-01-08T11:19:14.120Z,2.24
2019-01-08T11:21:44.434Z,2.20
2019-01-08T11:24:14.722Z,2.15
2019-01-08T11:26:44.970Z,2.17
2019-01-08T11:29:15.240Z,2.13
2019-01-08T11:31:49.005Z,2.24
2019-01-08T11:34:17.479Z,2.40
2019-01-08T11:36:47.817Z,2.50
2019-01-08T11:39:18.135Z,2.63
2019-01-08T11:41:48.383Z,2.72
2019-01-08T11:44:18.690Z,3.19
2019-01-08T11:46:48.953Z,4.10
2019-01-08T11:49:19.222Z,3.42
2019-01-08T11:51:49.467Z,3.16
2019-01-08T11:54:20.068Z,2.63
2019-01-08T11:56:50.406Z,3.27
2019-01-08T11:59:20.611Z,3.46
2019-01-08T12:01:57.277Z,3.89
2019-01-08T12:04:23.195Z,4.57
2019-01-08T12:06:53.646Z,4.40
2019-01-08T12:09:23.895Z,4.37
2019-01-08T12:11:54.192Z,4.53
2019-01-08T12:14:24.467Z,7.80
2019-01-08T12:16:54.717Z,7.00
2019-01-08T12:19:25.083Z,7.07
2019-01-08T12:21:55.365Z,6.95
2019-01-08T12:24:25.627Z,7.36
2019-01-08T12:26:55.878Z,5.69
2019-01-08T12:29:26.200Z,5.33
2019-01-08T12:31:56.476Z,4.14
2019-01-08T12:34:26.758Z,3.96
2019-01-08T12:36:57.042Z,4.61
2019-01-08T12:39:27.340Z,5.32
2019-01-08T12:41:57.639Z,7.18
2019-01-08T12:44:27.913Z,7.73
2019-01-08T12:46:58.213Z,8.86
2019-01-08T12:49:28.587Z,10.35
2019-01-08T12:51:58.882Z,6.75
2019-01-08T12:54:29.138Z,5.41
2019-01-08T12:56:59.491Z,5.34
2019-01-08T12:59:29.808Z,5.82
2019-01-08T13:02:00.159Z,5.25
2019-01-08T13:04:30.423Z,6.99
2019-01-08T13:07:00.695Z,7.54
2019-01-08T13:09:30.949Z,7.92
2019-01-08T13:12:01.228Z,8.23
2019-01-08T13:14:31.554Z,9.50
2019-01-08T13:17:01.859Z,6.28
2019-01-08T13:19:32.122Z,10.00
2019-01-08T13:22:02.443Z,9.42
2019-01-08T13:24:32.726Z,7.61
2019-01-08T13:27:03.019Z,6.27
2019-01-08T13:29:33.345Z,6.10
2019-01-08T13:32:03.611Z,5.27
2019-01-08T13:34:33.880Z,5.63
2019-01-08T13:37:04.234Z,4.78
2019-01-08T13:39:34.605Z,4.44
2019-01-08T13:42:04.905Z,4.23
2019-01-08T13:44:35.141Z,4.21
2019-01-08T13:47:05.391Z,4.14
2019-01-08T13:49:36.735Z,4.19
2019-01-08T13:52:06.993Z,3.96
2019-01-08T13:54:37.255Z,3.92
2019-01-08T13:57:07.576Z,3.99
2019-01-08T13:59:37.930Z,3.90
2019-01-08T14:02:08.217Z,3.89
2019-01-08T14:04:38.474Z,3.58
2019-01-08T14:07:08.915Z,3.50
2019-01-08T14:09:39.237Z,3.60
2019-01-08T14:12:09.514Z,3.62
2019-01-08T14:14:39.807Z,3.44
2019-01-08T14:17:10.060Z,3.48
2019-01-08T14:19:40.380Z,3.51
2019-01-08T14:22:10.643Z,3.57
2019-01-08T14:24:40.927Z,3.48
2019-01-08T14:27:11.865Z,3.42
2019-01-08T14:29:42.409Z,3.41
2019-01-08T14:32:12.676Z,3.32
2019-01-08T14:34:43.011Z,3.36
2019-01-08T14:37:13.396Z,3.36
2019-01-08T14:39:43.646Z,3.35
2019-01-08T14:42:13.928Z,3.40
2019-01-08T14:44:44.162Z,3.37
2019-01-08T14:47:14.411Z,3.32
2019-01-08T14:49:44.679Z,3.26
2019-01-08T14:52:14.942Z,3.30
2019-01-08T14:54:45.477Z,3.24
2019-01-08T14:57:15.759Z,3.25
2019-01-08T14:59:46.043Z,3.27
2019-01-08T15:02:16.311Z,3.23
2019-01-08T15:04:46.578Z,3.24
2019-01-08T15:07:16.815Z,3.22
2019-01-08T15:09:48.205Z,3.20
2019-01-08T15:12:18.545Z,3.19
2019-01-08T15:14:48.797Z,3.20
2019-01-08T15:17:19.055Z,3.18
2019-01-08T15:19:49.303Z,3.10
2019-01-08T15:22:19.547Z,3.14
2019-01-08T15:24:49.820Z,3.06
2019-01-08T15:27:20.065Z,3.06
2019-01-08T15:29:50.342Z,3.05
2019-01-08T15:32:20.588Z,3.10
2019-01-08T15:34:50.829Z,3.12
2019-01-08T15:37:21.164Z,3.05
2019-01-08T15:39:51.417Z,3.00
2019-01-08T15:42:21.678Z,3.07
2019-01-08T15:44:51.951Z,3.08
2019-01-08T15:47:22.202Z,3.02
2019-01-08T15:49:52.522Z,3.00
2019-01-08T15:52:22.801Z,3.01
2019-01-08T15:54:53.038Z,2.98
2019-01-08T15:57:23.309Z,2.92
2019-01-08T15:59:53.551Z,2.90
2019-01-08T16:02:23.813Z,2.92
2019-01-08T16:04:54.143Z,2.83
2019-01-08T16:07:24.592Z,2.83
2019-01-08T16:09:54.896Z,2.83
2019-01-08T16:12:25.176Z,2.87
2019-01-08T16:14:55.448Z,2.83
2019-01-08T16:17:25.706Z,2.79
2019-01-08T16:19:55.944Z,2.87
2019-01-08T16:22:26.214Z,2.86
2019-01-08T16:24:56.462Z,2.88
2019-01-08T16:27:26.761Z,2.86
2019-01-08T16:29:57.083Z,2.86
2019-01-08T16:32:27.346Z,2.79
2019-01-08T16:34:57.633Z,2.76
2019-01-08T16:37:27.901Z,2.81
2019-01-08T16:39:58.153Z,2.77
2019-01-08T16:42:28.417Z,2.70
2019-01-08T16:44:58.895Z,2.60
2019-01-08T16:47:29.137Z,2.67
2019-01-08T16:49:59.400Z,2.60
2019-01-08T16:52:29.669Z,2.65
2019-01-08T16:54:59.920Z,2.59
2019-01-08T16:57:30.187Z,2.66
2019-01-08T17:00:01.500Z,2.67
2019-01-08T17:02:33.155Z,2.62
2019-01-08T17:05:03.395Z,2.49
2019-01-08T17:07:34.847Z,2.54
2019-01-08T17:10:05.435Z,2.44
2019-01-08T17:12:38.180Z,2.44
2019-01-08T17:15:08.500Z,2.43
2019-01-08T17:17:38.762Z,2.40
2019-01-08T17:20:10.113Z,2.33
2019-01-08T17:22:40.952Z,2.37
2019-01-08T17:25:11.215Z,2.47
2019-01-08T17:27:41.451Z,2.40
2019-01-08T17:30:12.071Z,2.34
2019-01-08T17:32:42.329Z,2.36
2019-01-08T17:35:12.593Z,2.27
2019-01-08T17:37:42.880Z,2.21
2019-01-08T17:40:13.133Z,2.15
2019-01-08T17:42:43.625Z,2.11
2019-01-08T17:45:13.952Z,2.10
2019-01-08T17:47:44.217Z,2.07
2019-01-08T17:50:14.557Z,2.00
2019-01-08T17:52:44.909Z,2.05
2019-01-08T17:55:15.206Z,2.05
2019-01-08T17:57:45.507Z,2.07
2019-01-08T18:00:15.850Z,2.12
2019-01-08T18:02:50.903Z,2.12
2019-01-08T18:05:21.215Z,2.13
2019-01-08T18:07:51.477Z,2.04
2019-01-08T18:10:22.743Z,2.02
2019-01-08T18:12:52.989Z,2.02
2019-01-08T18:15:23.249Z,1.89
2019-01-08T18:17:53.518Z,1.87
2019-01-08T18:20:23.788Z,1.80
2019-01-08T18:22:54.040Z,1.85
2019-01-08T18:25:24.275Z,1.82
2019-01-08T18:27:54.546Z,1.90
2019-01-08T18:30:24.984Z,1.89
2019-01-08T18:32:55.234Z,1.92
2019-01-08T18:35:25.510Z,1.86
2019-01-08T18:37:55.761Z,1.87
2019-01-08T18:40:26.032Z,1.90
2019-01-08T18:42:58.237Z,1.84
2019-01-08T18:45:28.301Z,1.92
2019-01-08T18:47:58.558Z,1.88
2019-01-08T18:50:28.821Z,1.87
2019-01-08T18:52:59.098Z,1.82
2019-01-08T18:55:29.376Z,1.80
2019-01-08T18:57:59.652Z,1.75
2019-01-08T19:00:29.974Z,1.74
2019-01-08T19:03:00.180Z,1.83
2019-01-08T19:05:30.479Z,1.94
2019-01-08T19:08:00.756Z,1.88
2019-01-08T19:10:31.086Z,1.86
2019-01-08T19:13:01.347Z,1.89
2019-01-08T19:15:31.612Z,1.90
2019-01-08T19:18:03.039Z,1.89
2019-01-08T19:20:33.383Z,1.89
2019-01-08T19:23:05.359Z,1.88
2019-01-08T19:25:36.295Z,2.01
2019-01-08T19:28:31.806Z,2.08
2019-01-08T19:31:02.770Z,2.04
2019-01-08T19:33:33.556Z,2.13
2019-01-08T19:36:04.329Z,2.18
2019-01-08T19:38:35.386Z,2.15
2019-01-08T19:41:06.166Z,2.15
2019-01-08T19:43:36.978Z,2.25
2019-01-08T19:46:07.759Z,2.16
2019-01-08T19:48:38.569Z,2.15
2019-01-08T19:51:09.369Z,2.28
2019-01-08T19:53:40.519Z,2.26
2019-01-08T19:56:11.472Z,2.30
2019-01-08T19:58:42.270Z,2.25
2019-01-08T20:01:13.040Z,2.22
2019-01-08T20:03:43.886Z,2.26
2019-01-08T20:06:15.717Z,2.26
2019-01-08T20:08:48.813Z,2.29
2019-01-08T20:11:19.169Z,2.28
2019-01-08T20:13:49.972Z,2.23
2019-01-08T20:16:20.759Z,2.15
2019-01-08T20:18:52.326Z,2.19
2019-01-08T20:21:23.086Z,2.18
2019-01-08T20:23:54.015Z,2.04
2019-01-08T20:26:24.799Z,2.07
2019-01-08T20:28:55.629Z,2.01
2019-01-08T20:31:26.399Z,2.00
2019-01-08T20:33:57.198Z,1.94
2019-01-08T20:36:27.983Z,2.10
2019-01-08T20:38:59.414Z,1.99
2019-01-08T20:41:30.334Z,2.12
2019-01-08T20:44:01.124Z,2.09
2019-01-08T20:46:31.893Z,2.13
2019-01-08T20:49:02.674Z,2.15
2019-01-08T20:51:33.447Z,2.16
2019-01-08T20:54:04.316Z,2.12
2019-01-08T20:56:35.072Z,2.14
2019-01-08T20:59:05.882Z,2.06
2019-01-08T21:01:36.663Z,2.16
2019-01-08T21:04:08.436Z,2.16
2019-01-08T21:06:39.395Z,2.10
2019-01-08T21:09:10.195Z,2.18
2019-01-08T21:11:40.993Z,2.09
2019-01-08T21:14:12.025Z,2.04
2019-01-08T21:16:42.886Z,2.12
2019-01-08T21:19:13.676Z,2.02
2019-01-08T21:21:45.073Z,2.01
2019-01-08T21:24:15.916Z,1.94
2019-01-08T21:26:46.696Z,1.90
2019-01-08T21:29:17.499Z,1.93
2019-01-08T21:31:48.282Z,2.01
2019-01-08T21:34:19.099Z,1.94
2019-01-08T21:36:49.883Z,1.84
2019-01-08T21:39:20.706Z,1.87
2019-01-08T21:41:51.598Z,1.79
2019-01-08T21:44:22.380Z,1.77
2019-01-08T21:46:53.151Z,1.79
2019-01-08T21:49:24.085Z,1.79
2019-01-08T21:51:55.316Z,1.80
2019-01-08T21:54:26.340Z,1.87
2019-01-08T21:56:58.067Z,1.82
2019-01-08T21:59:29.267Z,1.74
2019-01-08T22:02:00.402Z,1.81
2019-01-08T22:04:31.399Z,1.87
2019-01-08T22:07:02.543Z,1.79
2019-01-08T22:09:34.888Z,1.77
2019-01-08T22:12:06.350Z,1.73
2019-01-08T22:14:37.470Z,1.68
2019-01-08T22:17:08.531Z,1.66
2019-01-08T22:19:39.681Z,1.62
2019-01-08T22:22:10.663Z,1.58
2019-01-08T22:24:41.724Z,1.65
2019-01-08T22:27:12.988Z,1.48
2019-01-08T22:29:44.070Z,1.50
2019-01-08T22:32:15.086Z,1.51
2019-01-08T22:34:46.174Z,1.50
2019-01-08T22:37:18.527Z,1.64
2019-01-08T22:39:49.932Z,1.68
2019-01-08T22:42:21.224Z,1.76
2019-01-08T22:44:52.654Z,1.70
2019-01-08T22:47:23.620Z,1.72
2019-01-08T22:49:54.695Z,1.78
2019-01-08T22:52:25.834Z,1.75
2019-01-08T22:54:56.995Z,1.81
2019-01-08T22:57:29.017Z,1.71
2019-01-08T23:00:00.283Z,1.73
2019-01-08T23:02:31.831Z,1.80
2019-01-08T23:05:10.523Z,1.75
2019-01-08T23:07:35.609Z,1.66
2019-01-08T23:10:07.872Z,1.64
2019-01-08T23:12:38.895Z,1.60
2019-01-08T23:15:10.349Z,1.55
2019-01-08T23:17:41.660Z,1.60
2019-01-08T23:20:12.999Z,1.53
2019-01-08T23:22:44.128Z,1.63
2019-01-08T23:25:15.272Z,1.59
2019-01-08T23:27:46.332Z,1.67
2019-01-08T23:30:17.486Z,1.72
2019-01-08T23:32:48.636Z,1.72
2019-01-08T23:35:19.868Z,1.82
2019-01-08T23:37:51.089Z,1.69
2019-01-08T23:40:22.226Z,1.70
2019-01-08T23:42:53.369Z,1.53
2019-01-08T23:45:24.546Z,1.48
2019-01-08T23:47:55.600Z,1.47
2019-01-08T23:50:26.766Z,1.59
2019-01-08T23:53:05.426Z,1.50
2019-01-08T23:55:40.389Z,1.51
2019-01-08T23:58:13.354Z,1.38
